Time;durP1;ratioP1;P1;durP2;ratioP2;P2;SDS_P1;SDS_P2;PMS_P1;PMS_P2;Temp;Humidity;BMP_temperature;BMP_pressure;BME280_temperature;BME280_humidity;BME280_pressure;Samples;Min_cycle;Max_cycle;Signal;HPM_P1;HPM_P2
2022/01/20 00:00:19;;;;;;;17.30;16.50;;;8.30;82.10;;;;;;4987064;28;20027;-79
2022/01/20 00:02:47;;;;;;;17.60;16.77;;;8.40;82.30;;;;;;4975955;28;20030;-79
2022/01/20 00:27:07;;;;;;;17.90;17.02;;;8.30;82.10;;;;;;4999140;28;20045;-79
2022/01/20 00:29:56;;;;;;;20.08;18.83;;;8.30;82.10;;;;;;4995700;28;20176;-79
2022/01/20 00:32:24;;;;;;;17.23;16.33;;;8.30;82.10;;;;;;5008200;28;20030;-79
2022/01/20 00:35:11;;;;;;;17.60;16.60;;;8.40;82.20;;;;;;4990241;28;20466;-79
2022/01/20 00:37:37;;;;;;;17.00;16.20;;;8.40;82.20;;;;;;5010529;28;20057;-79
2022/01/20 00:40:04;;;;;;;17.75;16.85;;;8.40;82.20;;;;;;5007097;28;20054;-79
2022/01/20 00:42:30;;;;;;;17.13;16.23;;;8.40;82.20;;;;;;4992565;28;20391;-79
2022/01/20 00:44:56;;;;;;;18.67;17.58;;;8.40;82.20;;;;;;5012151;28;20037;-79
2022/01/20 00:47:22;;;;;;;18.35;17.45;;;8.40;82.20;;;;;;4995198;28;20043;-79
2022/01/20 00:49:48;;;;;;;18.00;17.10;;;8.40;82.30;;;;;;5008274;28;20049;-79
2022/01/20 00:52:14;;;;;;;19.17;17.58;;;8.40;82.30;;;;;;4984197;28;20138;-79
2022/01/20 00:54:41;;;;;;;17.92;16.92;;;8.40;82.30;;;;;;4993015;28;20411;-79
2022/01/20 00:57:07;;;;;;;18.35;17.25;;;8.40;82.20;;;;;;4974346;28;20514;-79
2022/01/20 00:59:33;;;;;;;17.15;16.35;;;8.50;82.30;;;;;;4974362;28;20038;-79
2022/01/20 01:02:01;;;;;;;18.45;17.48;;;8.40;82.30;;;;;;4987929;28;20038;-79
2022/01/20 01:04:27;;;;;;;17.93;17.03;;;8.40;83.10;;;;;;4989465;28;20026;-79
2022/01/20 01:09:40;;;;;;;18.40;17.40;;;8.40;82.30;;;;;;4991820;28;20046;-79
2022/01/20 01:12:10;;;;;;;17.30;16.50;;;8.40;82.30;;;;;;4991897;28;20053;-79
2022/01/20 01:14:41;;;;;;;17.35;16.55;;;8.40;82.30;;;;;;4992870;28;20042;-79
2022/01/20 01:24:44;;;;;;;18.15;17.15;;;8.40;82.40;;;;;;4962349;28;20038;-79
2022/01/20 01:27:12;;;;;;;17.02;16.02;;;8.40;82.40;;;;;;4988558;28;20019;-79
2022/01/20 01:32:32;;;;;;;18.33;17.27;;;8.40;82.40;;;;;;4992271;28;20057;-79
2022/01/20 01:35:00;;;;;;;17.23;16.33;;;8.40;82.40;;;;;;4988485;28;20042;-79
2022/01/20 01:40:04;;;;;;;17.55;16.65;;;8.40;82.40;;;;;;4985419;28;20033;-80
2022/01/20 01:42:38;;;;;;;18.40;17.30;;;8.40;82.40;;;;;;4984263;28;20030;-80
2022/01/20 01:45:19;;;;;;;18.00;16.92;;;8.40;82.50;;;;;;4989590;28;20050;-80
2022/01/20 01:47:45;;;;;;;17.20;16.30;;;8.40;82.50;;;;;;4993489;28;20502;-80
2022/01/20 01:50:11;;;;;;;18.52;17.45;;;8.40;82.40;;;;;;4977740;28;20030;-80
2022/01/20 01:52:37;;;;;;;18.98;17.77;;;8.40;82.50;;;;;;4982517;28;20035;-80
2022/01/20 01:55:04;;;;;;;17.17;16.38;;;8.40;82.50;;;;;;4978558;28;20038;-80
2022/01/20 01:57:30;;;;;;;17.70;16.80;;;8.50;82.60;;;;;;4982474;28;20034;-80
2022/01/20 01:59:56;;;;;;;18.08;17.13;;;8.40;82.50;;;;;;4978984;28;20038;-80
2022/01/20 02:02:23;;;;;;;16.77;15.93;;;8.40;82.50;;;;;;4977382;28;20034;-80
2022/01/20 02:04:50;;;;;;;18.23;17.20;;;8.50;82.60;;;;;;4987908;28;20029;-80
2022/01/20 02:18:24;;;;;;;17.95;16.80;;;8.40;82.60;;;;;;4939448;29;20568;-80
2022/01/20 02:20:51;;;;;;;16.27;15.48;;;8.40;82.60;;;;;;4937447;29;20050;-80
2022/01/20 02:23:17;;;;;;;17.70;16.80;;;8.40;82.60;;;;;;4935531;29;20472;-80
2022/01/20 02:25:43;;;;;;;17.88;16.98;;;8.50;82.70;;;;;;4950266;28;20493;-80
2022/01/20 02:28:10;;;;;;;17.43;16.63;;;8.40;82.50;;;;;;4931268;29;20174;-80
2022/01/20 02:30:37;;;;;;;18.40;17.13;;;8.40;82.60;;;;;;4951243;28;20051;-80
2022/01/20 02:33:05;;;;;;;17.30;16.43;;;8.40;82.60;;;;;;4950833;29;20121;-80
2022/01/20 02:35:34;;;;;;;17.58;16.75;;;8.50;82.70;;;;;;4935316;29;20042;-80
2022/01/20 02:38:15;;;;;;;17.10;16.20;;;8.50;82.70;;;;;;4950032;29;20039;-80
2022/01/20 02:45:53;;;;;;;18.60;17.15;;;8.50;82.60;;;;;;4937533;28;20042;-80
2022/01/20 02:48:19;;;;;;;17.65;16.70;;;8.50;82.60;;;;;;4951779;29;20031;-80
2022/01/20 02:50:46;;;;;;;18.25;17.00;;;8.50;82.60;;;;;;4958883;28;20043;-80
2022/01/20 02:53:12;;;;;;;17.17;16.38;;;8.50;82.60;;;;;;4968436;28;20491;-80
2022/01/20 02:55:38;;;;;;;17.25;16.42;;;8.50;82.60;;;;;;4962198;28;20034;-80
2022/01/20 02:58:05;;;;;;;17.88;16.88;;;8.50;82.60;;;;;;4966896;28;20358;-80
2022/01/20 03:00:31;;;;;;;17.07;16.27;;;8.50;82.70;;;;;;4947166;28;20034;-80
2022/01/20 03:02:57;;;;;;;19.93;17.63;;;8.40;82.70;;;;;;4986939;28;20038;-80
2022/01/20 03:05:23;;;;;;;17.63;16.73;;;8.40;82.70;;;;;;4983312;28;20034;-80
2022/01/20 03:07:49;;;;;;;18.00;17.17;;;8.40;83.50;;;;;;4983191;28;20034;-80
2022/01/20 03:10:17;;;;;;;17.63;16.83;;;8.40;82.70;;;;;;4975791;28;20767;-80
2022/01/20 03:12:43;;;;;;;17.13;16.30;;;8.40;82.80;;;;;;4986737;28;20039;-80
2022/01/20 03:15:09;;;;;;;16.58;15.77;;;8.40;82.80;;;;;;4988593;28;20054;-80
2022/01/20 03:17:35;;;;;;;17.75;16.85;;;8.40;82.90;;;;;;4975908;28;20495;-80
2022/01/20 03:20:01;;;;;;;17.50;16.20;;;8.40;82.90;;;;;;4989194;28;20030;-80
2022/01/20 03:22:27;;;;;;;17.40;16.40;;;8.40;82.90;;;;;;4986008;28;20050;-80
2022/01/20 03:24:55;;;;;;;17.17;16.37;;;8.40;82.80;;;;;;4987443;28;20039;-80
2022/01/20 03:27:21;;;;;;;18.23;17.33;;;8.40;82.80;;;;;;4982298;28;20502;-80
2022/01/20 03:29:47;;;;;;;16.73;15.93;;;8.40;82.80;;;;;;4987637;28;20049;-80
2022/01/20 03:32:13;;;;;;;17.33;16.53;;;8.40;82.80;;;;;;4971442;28;20031;-80
2022/01/20 03:34:39;;;;;;;18.37;17.47;;;8.40;82.90;;;;;;4967776;28;20046;-80
2022/01/20 03:37:05;;;;;;;17.85;16.90;;;8.40;82.90;;;;;;4968746;28;20031;-80
2022/01/20 03:39:32;;;;;;;16.93;16.13;;;8.40;82.90;;;;;;4968072;28;20039;-80
2022/01/20 03:41:58;;;;;;;16.83;15.83;;;8.40;82.90;;;;;;4962205;28;20031;-80
2022/01/20 03:44:24;;;;;;;17.03;16.23;;;8.40;82.90;;;;;;4960797;28;20031;-80
2022/01/20 03:46:50;;;;;;;16.30;15.50;;;8.40;82.90;;;;;;4978581;28;20026;-79
2022/01/20 03:49:32;;;;;;;16.67;15.87;;;8.40;82.90;;;;;;4987757;28;20043;-80
2022/01/20 03:51:58;;;;;;;17.17;16.17;;;8.40;82.90;;;;;;4990328;28;20031;-80
2022/01/20 03:54:25;;;;;;;16.42;15.65;;;8.40;82.90;;;;;;4991085;28;20038;-79
2022/01/20 03:56:51;;;;;;;17.33;16.52;;;8.40;82.90;;;;;;4989542;28;20043;-80
2022/01/20 03:59:17;;;;;;;17.17;16.37;;;8.40;82.90;;;;;;4989380;28;20046;-79
2022/01/20 04:01:43;;;;;;;17.23;16.43;;;8.40;82.90;;;;;;4990771;28;20471;-80
2022/01/20 04:04:10;;;;;;;17.33;16.48;;;8.40;82.90;;;;;;5009313;28;20042;-79
2022/01/20 04:06:36;;;;;;;17.88;17.05;;;8.40;83.00;;;;;;4990785;28;20033;-79
2022/01/20 04:09:02;;;;;;;18.40;17.50;;;8.30;82.90;;;;;;4981911;28;20037;-79
2022/01/20 04:11:28;;;;;;;16.93;16.13;;;8.30;83.00;;;;;;4978560;28;20031;-79
2022/01/20 04:13:54;;;;;;;17.88;16.77;;;8.30;83.00;;;;;;4982889;28;20081;-79
2022/01/20 04:16:32;;;;;;;17.60;16.60;;;8.30;83.00;;;;;;4983988;28;20046;-79
2022/01/20 04:18:59;;;;;;;15.87;15.17;;;8.30;83.10;;;;;;4984426;28;20047;-80
2022/01/20 04:21:27;;;;;;;17.33;16.42;;;8.30;83.20;;;;;;4962530;28;20050;-80
2022/01/20 04:23:53;;;;;;;17.73;16.77;;;8.30;83.10;;;;;;4995047;28;20054;-79
2022/01/20 04:26:20;;;;;;;16.73;15.93;;;8.30;83.10;;;;;;4978949;28;20038;-80
2022/01/20 04:28:46;;;;;;;17.37;16.57;;;8.20;83.10;;;;;;4983430;28;20046;-80
2022/01/20 04:31:12;;;;;;;18.37;17.20;;;8.20;83.10;;;;;;4983628;28;20035;-80
2022/01/20 04:33:38;;;;;;;17.67;16.77;;;8.30;83.20;;;;;;4979960;28;20038;-77
2022/01/20 04:36:06;;;;;;;16.07;15.37;;;8.20;83.10;;;;;;4991333;28;20027;-76
2022/01/20 04:38:32;;;;;;;17.27;16.37;;;8.20;83.20;;;;;;4987034;28;20398;-76
2022/01/20 04:40:58;;;;;;;17.60;16.73;;;8.20;83.10;;;;;;4980103;28;20043;-77
2022/01/20 04:43:25;;;;;;;18.00;16.90;;;8.20;83.20;;;;;;4991777;28;20042;-76
2022/01/20 04:46:04;;;;;;;17.30;16.40;;;8.20;83.30;;;;;;4995045;28;20034;-76
2022/01/20 04:48:46;;;;;;;17.13;16.33;;;8.20;83.30;;;;;;4992515;28;20045;-76
2022/01/20 04:59:25;;;;;;;16.63;15.83;;;8.10;83.20;;;;;;4993130;28;20427;-77
2022/01/20 05:01:51;;;;;;;16.10;15.40;;;8.10;83.30;;;;;;4993348;28;20034;-76
2022/01/20 05:04:18;;;;;;;16.93;16.13;;;8.00;83.30;;;;;;4983956;28;20039;-77
2022/01/20 05:06:45;;;;;;;17.27;16.47;;;8.00;83.60;;;;;;4981111;28;20035;-77
2022/01/20 05:09:17;;;;;;;16.63;15.83;;;7.90;83.30;;;;;;4977827;28;20061;-77
2022/01/20 05:11:48;;;;;;;16.83;16.03;;;7.90;83.40;;;;;;4989428;28;20046;-76
2022/01/20 05:14:14;;;;;;;16.75;15.95;;;7.90;83.40;;;;;;4981670;28;20031;-78
2022/01/20 05:16:40;;;;;;;17.60;16.70;;;7.80;83.40;;;;;;4989434;28;20043;-77
2022/01/20 05:19:06;;;;;;;16.37;15.57;;;7.80;83.50;;;;;;4981764;28;20058;-78
2022/01/20 05:21:32;;;;;;;18.63;17.63;;;7.80;83.50;;;;;;4990565;28;20057;-78
2022/01/20 05:23:59;;;;;;;15.77;15.07;;;7.80;83.50;;;;;;4979486;28;20035;-77
2022/01/20 05:26:25;;;;;;;16.77;15.87;;;7.80;83.50;;;;;;4976611;28;20037;-77
2022/01/20 05:28:51;;;;;;;16.80;16.00;;;7.70;83.50;;;;;;4985938;28;20030;-77
2022/01/20 05:31:17;;;;;;;16.30;15.50;;;7.70;83.60;;;;;;4983741;28;20039;-77
2022/01/20 05:33:43;;;;;;;16.07;15.37;;;7.70;83.60;;;;;;4976720;28;20387;-77
2022/01/20 05:36:09;;;;;;;16.10;15.30;;;7.60;83.60;;;;;;4974132;28;20030;-78
2022/01/20 05:38:35;;;;;;;16.73;15.93;;;7.60;83.70;;;;;;4973212;28;20425;-78
2022/01/20 05:41:01;;;;;;;17.33;16.53;;;7.60;83.70;;;;;;4972014;28;20035;-77
2022/01/20 05:43:27;;;;;;;17.23;16.33;;;7.60;83.70;;;;;;4978234;28;20038;-77
2022/01/20 05:45:53;;;;;;;17.40;16.50;;;7.60;83.80;;;;;;4976838;28;20046;-76
2022/01/20 05:48:31;;;;;;;16.83;16.03;;;7.60;83.70;;;;;;4976602;28;20026;-77
2022/01/20 05:50:58;;;;;;;17.57;16.67;;;7.60;83.70;;;;;;4973855;28;20026;-78
2022/01/20 05:53:24;;;;;;;17.23;16.33;;;7.70;83.70;;;;;;4975264;28;20479;-79
2022/01/20 05:55:50;;;;;;;16.67;15.87;;;7.70;83.60;;;;;;4971068;28;20033;-79
2022/01/20 05:58:16;;;;;;;15.70;15.00;;;7.70;83.60;;;;;;4977740;28;20049;-78
2022/01/20 06:00:42;;;;;;;16.40;15.60;;;7.70;83.60;;;;;;4976460;28;20031;-78
2022/01/20 06:05:53;;;;;;;17.63;16.73;;;7.60;83.60;;;;;;4968456;28;20046;-78
2022/01/20 06:08:19;;;;;;;17.73;16.83;;;7.60;83.70;;;;;;4975609;28;20035;-78
2022/01/20 06:10:45;;;;;;;18.37;17.27;;;7.60;83.70;;;;;;4978480;28;20114;-78
2022/01/20 06:13:12;;;;;;;17.37;16.57;;;7.60;83.70;;;;;;4975931;28;20496;-78
2022/01/20 06:15:38;;;;;;;17.93;17.07;;;7.70;83.70;;;;;;4976216;28;20041;-78
2022/01/20 06:18:04;;;;;;;17.37;16.47;;;7.70;83.60;;;;;;4970163;28;20035;-78
2022/01/20 06:20:30;;;;;;;18.77;17.77;;;7.70;83.60;;;;;;4983195;28;20034;-78
2022/01/20 06:22:57;;;;;;;16.67;15.87;;;7.70;83.70;;;;;;4960823;28;20043;-78
2022/01/20 06:25:23;;;;;;;17.73;16.93;;;7.80;83.50;;;;;;4968409;28;20030;-78
2022/01/20 06:27:49;;;;;;;16.10;15.40;;;7.70;83.40;;;;;;4964014;28;20043;-79
2022/01/20 06:30:15;;;;;;;16.43;15.63;;;7.70;83.40;;;;;;4972299;28;20475;-78
2022/01/20 06:32:41;;;;;;;17.13;16.33;;;7.70;83.40;;;;;;4990651;28;20037;-78
2022/01/20 06:35:08;;;;;;;16.57;15.77;;;7.70;83.50;;;;;;4978032;28;20030;-78
2022/01/20 06:37:34;;;;;;;18.33;17.43;;;7.70;83.60;;;;;;4988576;28;20037;-78
2022/01/20 06:40:00;;;;;;;16.70;15.90;;;7.60;83.60;;;;;;4992284;28;20046;-78
2022/01/20 06:42:27;;;;;;;16.20;15.40;;;7.70;83.60;;;;;;4991299;28;20041;-78
2022/01/20 06:44:53;;;;;;;16.85;16.02;;;7.70;83.60;;;;;;4990836;28;20035;-79
2022/01/20 06:47:20;;;;;;;17.20;16.10;;;7.70;83.60;;;;;;4992299;28;20395;-78
2022/01/20 06:49:47;;;;;;;17.87;17.03;;;7.70;83.60;;;;;;4988328;28;20027;-78
2022/01/20 06:52:13;;;;;;;16.47;15.67;;;7.70;83.60;;;;;;4983379;28;20049;-78
2022/01/20 06:54:39;;;;;;;17.20;16.30;;;7.70;83.60;;;;;;4982755;28;20394;-78
2022/01/20 06:57:05;;;;;;;16.55;15.75;;;7.60;83.50;;;;;;4991111;28;20037;-78
2022/01/20 06:59:31;;;;;;;17.10;16.30;;;7.60;83.60;;;;;;4990962;28;20069;-78
2022/01/20 07:01:57;;;;;;;16.47;15.70;;;7.60;83.60;;;;;;4989913;28;20034;-78
2022/01/20 07:04:25;;;;;;;19.77;17.83;;;7.60;83.60;;;;;;4985580;28;20047;-78
2022/01/20 07:06:52;;;;;;;16.90;16.07;;;7.60;83.60;;;;;;4990974;28;20041;-78
2022/01/20 07:09:18;;;;;;;17.20;16.30;;;7.60;83.60;;;;;;4991351;28;20034;-78
2022/01/20 07:11:44;;;;;;;16.60;15.80;;;7.60;83.70;;;;;;4991055;28;20047;-78
2022/01/20 07:14:10;;;;;;;17.83;17.03;;;7.60;83.80;;;;;;4992948;28;20039;-79
2022/01/20 07:16:36;;;;;;;16.10;15.40;;;7.60;83.70;;;;;;4991278;28;20054;-79
2022/01/20 07:19:03;;;;;;;16.97;16.17;;;7.60;83.60;;;;;;4990850;28;20041;-79
2022/01/20 07:21:29;;;;;;;16.93;16.13;;;7.50;83.60;;;;;;4979020;28;20498;-79
2022/01/20 07:23:55;;;;;;;18.33;17.33;;;7.50;83.60;;;;;;4991830;28;20053;-79
2022/01/20 07:26:21;;;;;;;17.93;17.03;;;7.50;83.70;;;;;;4985995;28;20042;-79
2022/01/20 07:28:47;;;;;;;16.73;15.93;;;7.50;83.70;;;;;;4986171;28;20452;-78
2022/01/20 07:31:16;;;;;;;16.30;15.50;;;7.50;83.70;;;;;;4989489;28;20038;-80
2022/01/20 07:33:44;;;;;;;15.73;15.03;;;7.40;83.60;;;;;;4992924;28;20410;-80
2022/01/20 07:36:10;;;;;;;16.33;15.63;;;7.40;83.70;;;;;;4985185;28;20472;-80
2022/01/20 07:38:36;;;;;;;16.80;16.00;;;7.40;83.80;;;;;;4995502;28;20049;-79
2022/01/20 07:41:02;;;;;;;17.80;16.90;;;7.40;83.80;;;;;;4991626;28;20042;-83
2022/01/20 07:43:28;;;;;;;17.50;16.63;;;7.40;83.80;;;;;;4977247;28;20030;-83
2022/01/20 07:45:55;;;;;;;16.97;16.17;;;7.40;83.80;;;;;;4988835;28;20408;-80
2022/01/20 07:48:21;;;;;;;17.83;16.90;;;7.40;83.80;;;;;;4984545;28;20044;-81
2022/01/20 07:50:47;;;;;;;17.60;16.80;;;7.40;83.80;;;;;;4978867;28;20030;-88
2022/01/20 07:53:13;;;;;;;17.80;16.90;;;7.30;83.70;;;;;;5006573;28;20482;-82
2022/01/20 07:55:39;;;;;;;16.67;15.87;;;7.40;83.80;;;;;;4989321;28;20038;-83
2022/01/20 07:58:06;;;;;;;17.17;16.38;;;7.40;83.80;;;;;;4995186;28;20110;-84
2022/01/20 08:00:32;;;;;;;18.60;17.37;;;7.40;83.80;;;;;;4991631;28;20058;-84
2022/01/20 08:02:58;;;;;;;17.50;16.70;;;7.30;83.70;;;;;;4989672;28;20395;-84
2022/01/20 08:05:24;;;;;;;16.23;15.50;;;7.40;83.70;;;;;;4991423;28;20038;-82
2022/01/20 08:07:50;;;;;;;15.83;15.13;;;7.30;83.70;;;;;;4993152;28;20026;-81
2022/01/20 08:10:16;;;;;;;16.50;15.70;;;7.30;83.60;;;;;;4986358;28;20026;-81
2022/01/20 08:12:43;;;;;;;16.67;15.77;;;7.20;83.70;;;;;;4981298;28;20034;-84
2022/01/20 08:15:12;;;;;;;17.83;16.90;;;7.20;83.70;;;;;;4984324;28;20411;-83
2022/01/20 08:17:39;;;;;;;17.23;16.43;;;7.20;83.80;;;;;;4994371;28;20057;-83
2022/01/20 08:20:06;;;;;;;16.73;15.83;;;7.30;84.00;;;;;;4982374;28;20125;-83
2022/01/20 08:22:34;;;;;;;16.57;15.77;;;7.30;83.90;;;;;;4989791;28;20045;-82
2022/01/20 08:25:05;;;;;;;17.50;16.60;;;7.40;83.80;;;;;;4994093;28;20037;-83
2022/01/20 08:27:31;;;;;;;17.63;16.70;;;7.50;83.90;;;;;;4993926;28;20069;-86
2022/01/20 08:29:57;;;;;;;16.57;15.77;;;7.60;83.70;;;;;;4984060;28;20046;-85
2022/01/20 08:32:23;;;;;;;17.50;16.67;;;7.60;83.60;;;;;;4987047;28;20041;-81
2022/01/20 08:34:49;;;;;;;19.37;17.33;;;7.60;83.70;;;;;;4983075;28;20023;-83
2022/01/20 08:37:15;;;;;;;17.90;17.00;;;7.70;83.80;;;;;;4988930;28;20041;-86
2022/01/20 08:39:42;;;;;;;17.97;16.77;;;7.70;83.50;;;;;;4979160;28;20046;-85
2022/01/20 08:42:08;;;;;;;16.83;16.03;;;7.60;83.50;;;;;;5009025;28;20034;-85
2022/01/20 08:44:35;;;;;;;16.37;15.60;;;7.60;83.50;;;;;;4992771;28;20041;-87
2022/01/20 08:47:02;;;;;;;16.33;15.53;;;7.50;83.60;;;;;;4975236;28;20034;-87
2022/01/20 08:49:29;;;;;;;16.17;15.43;;;7.50;83.70;;;;;;4982233;28;20034;-86
2022/01/20 08:51:55;;;;;;;16.70;15.90;;;7.40;83.80;;;;;;4980999;28;20041;-86
2022/01/20 08:54:21;;;;;;;15.80;15.10;;;7.30;83.70;;;;;;4979383;28;20030;-88
2022/01/20 08:56:47;;;;;;;15.97;15.27;;;7.30;83.80;;;;;;4984929;28;20030;-84
2022/01/20 08:59:13;;;;;;;15.73;15.03;;;7.20;83.70;;;;;;4996062;28;20050;-87
2022/01/20 09:01:40;;;;;;;16.43;15.63;;;7.10;83.90;;;;;;4990014;28;20057;-87
2022/01/20 09:04:07;;;;;;;15.80;15.10;;;7.10;84.10;;;;;;4976768;28;20035;-86
2022/01/20 09:06:33;;;;;;;17.47;16.47;;;7.00;84.10;;;;;;4981961;28;20031;-85
2022/01/20 09:08:59;;;;;;;16.17;15.47;;;7.00;84.30;;;;;;4986716;28;20388;-84
2022/01/20 09:11:34;;;;;;;16.60;15.80;;;7.00;84.30;;;;;;4981547;28;20419;-83
2022/01/20 09:16:45;;;;;;;16.57;15.77;;;7.00;84.00;;;;;;4989742;28;20057;-85
2022/01/20 09:19:11;;;;;;;16.80;16.00;;;6.90;84.10;;;;;;4988886;28;20403;-85
2022/01/20 09:21:39;;;;;;;16.80;16.00;;;6.90;84.20;;;;;;4986936;28;20031;-87
2022/01/20 09:24:06;;;;;;;18.23;17.30;;;6.90;84.30;;;;;;4979991;28;20038;-87
2022/01/20 09:26:32;;;;;;;18.03;16.93;;;6.90;84.20;;;;;;4963302;28;20034;-87
2022/01/20 09:28:58;;;;;;;17.27;16.47;;;7.00;84.30;;;;;;4992139;28;20077;-86
2022/01/20 09:31:26;;;;;;;18.17;17.37;;;7.10;84.20;;;;;;4983805;28;20042;-87
2022/01/20 09:33:53;;;;;;;16.30;15.60;;;7.10;83.90;;;;;;4975177;28;20031;-87
2022/01/20 09:36:20;;;;;;;15.70;15.00;;;7.20;83.70;;;;;;4990991;28;20034;-88
2022/01/20 09:38:46;;;;;;;16.30;15.50;;;7.10;83.60;;;;;;4971002;28;20030;-88
2022/01/20 09:41:12;;;;;;;16.87;15.97;;;7.10;83.60;;;;;;4976198;28;20042;-87
2022/01/20 09:43:38;;;;;;;18.23;17.23;;;7.10;83.60;;;;;;4986303;28;20035;-84
2022/01/20 09:46:04;;;;;;;17.00;16.20;;;7.30;83.50;;;;;;4984767;28;20042;-84
2022/01/20 09:48:32;;;;;;;19.87;17.13;;;7.60;83.00;;;;;;4981906;28;20038;-86
2022/01/20 09:51:00;;;;;;;18.53;17.67;;;7.80;82.40;;;;;;4986025;28;20030;-84
2022/01/20 09:53:29;;;;;;;1999.90;999.90;;;8.00;81.80;;;;;;4981982;28;20053;-85
2022/01/20 09:55:56;;;;;;;1999.90;999.90;;;8.20;81.40;;;;;;4984934;28;20047;-85
2022/01/20 09:58:22;;;;;;;17.77;16.87;;;8.40;81.10;;;;;;4989648;28;20034;-87
2022/01/20 10:00:48;;;;;;;17.03;16.23;;;8.60;80.80;;;;;;4986839;28;20050;-87
2022/01/20 10:03:16;;;;;;;18.23;17.33;;;8.70;80.50;;;;;;4987812;28;20030;-87
2022/01/20 10:05:48;;;;;;;18.80;17.80;;;8.80;80.40;;;;;;4991463;28;20022;-88
2022/01/20 10:08:23;;;;;;;;;;;8.60;80.50;;;;;;4986859;28;20026;-88
2022/01/20 10:10:50;;;;;;;1504.95;754.70;;;8.50;81.10;;;;;;4967565;28;19910;-87
2022/01/20 10:13:19;;;;;;;18.42;17.58;;;8.60;81.30;;;;;;4989477;28;20031;-89
2022/01/20 10:16:03;;;;;;;1999.90;999.90;;;8.90;81.10;;;;;;4990207;28;20525;-88
2022/01/20 10:18:29;;;;;;;18.95;18.05;;;9.10;80.40;;;;;;4990095;28;20037;-87
2022/01/20 10:21:05;;;;;;;20.75;19.75;;;9.20;80.00;;;;;;4989107;28;20050;-87
2022/01/20 10:23:42;;;;;;;19.88;18.60;;;9.30;79.80;;;;;;4985962;28;20042;-85
2022/01/20 10:26:15;;;;;;;1999.90;999.90;;;9.30;79.70;;;;;;4977125;28;20034;-83
2022/01/20 10:28:45;;;;;;;21.75;20.65;;;9.20;79.90;;;;;;4978944;28;20041;-82
2022/01/20 10:31:11;;;;;;;18.92;18.02;;;9.30;80.00;;;;;;4976069;28;20209;-83
2022/01/20 10:33:41;;;;;;;19.73;18.83;;;9.40;80.00;;;;;;4971994;28;20024;-84
2022/01/20 10:36:08;;;;;;;19.95;19.05;;;9.60;79.70;;;;;;4977570;28;20041;-84
2022/01/20 10:38:34;;;;;;;1999.90;999.90;;;9.60;79.60;;;;;;4952282;28;20035;-86
2022/01/20 10:41:00;;;;;;;1999.90;999.90;;;9.70;79.50;;;;;;4983723;28;20038;-85
2022/01/20 10:43:28;;;;;;;21.38;20.38;;;9.80;79.40;;;;;;4977463;28;20027;-86
2022/01/20 10:46:01;;;;;;;20.70;19.75;;;9.90;79.20;;;;;;4975114;28;20027;-85
2022/01/20 10:48:27;;;;;;;20.40;19.50;;;9.70;79.10;;;;;;4971332;28;20034;-84
2022/01/20 10:50:53;;;;;;;1999.90;999.90;;;9.70;79.60;;;;;;4971108;28;20038;-85
2022/01/20 10:53:19;;;;;;;21.10;20.10;;;9.60;79.90;;;;;;4975987;28;20360;-83
2022/01/20 10:55:46;;;;;;;1999.90;999.90;;;9.60;79.90;;;;;;4970708;28;20035;-85
2022/01/20 10:58:16;;;;;;;1505.07;754.83;;;9.70;80.10;;;;;;4970947;28;20034;-83
2022/01/20 11:00:45;;;;;;;1999.90;999.90;;;10.00;80.00;;;;;;4978629;28;20510;-86
2022/01/20 11:03:11;;;;;;;1999.90;999.90;;;10.30;79.40;;;;;;4983625;28;20023;-86
2022/01/20 11:05:39;;;;;;;1999.90;999.90;;;10.50;78.70;;;;;;4971852;28;20042;-87
2022/01/20 11:08:06;;;;;;;21.08;20.08;;;10.60;78.30;;;;;;5006766;28;20467;-85
2022/01/20 11:10:32;;;;;;;20.13;19.23;;;10.70;78.20;;;;;;4988419;28;20027;-84
2022/01/20 11:12:58;;;;;;;516.05;265.30;;;10.50;78.10;;;;;;4985194;28;20038;-85
2022/01/20 11:15:26;;;;;;;19.70;18.80;;;10.40;78.70;;;;;;4987060;28;20437;-87
2022/01/20 11:17:53;;;;;;;19.63;18.73;;;10.30;79.10;;;;;;4967306;28;20038;-86
2022/01/20 11:20:25;;;;;;;20.08;19.17;;;10.20;79.30;;;;;;4969630;28;20046;-87
2022/01/20 11:23:00;;;;;;;20.15;19.25;;;10.00;79.40;;;;;;4964387;28;20455;-86
2022/01/20 11:25:28;;;;;;;19.80;18.90;;;10.00;79.50;;;;;;4967575;28;20477;-85
2022/01/20 11:28:10;;;;;;;20.17;18.77;;;9.90;79.50;;;;;;4967401;28;20396;-87
2022/01/20 11:30:39;;;;;;;20.42;19.52;;;9.80;79.70;;;;;;4969394;28;20042;-86
2022/01/20 11:33:13;;;;;;;19.70;18.80;;;9.90;79.70;;;;;;4960197;28;20030;-85
2022/01/20 11:35:47;;;;;;;21.05;20.05;;;9.90;79.70;;;;;;4946339;28;20522;-83
2022/01/20 11:38:15;;;;;;;20.95;19.98;;;10.10;79.50;;;;;;4963914;28;20023;-84
2022/01/20 11:40:54;;;;;;;515.03;264.35;;;10.30;79.30;;;;;;4963674;28;20035;-82
2022/01/20 11:43:32;;;;;;;516.10;265.35;;;10.50;78.70;;;;;;4969055;28;20042;-82
2022/01/20 11:46:15;;;;;;;1010.20;509.70;;;10.60;78.20;;;;;;4972259;28;20026;-83
2022/01/20 11:49:01;;;;;;;1999.90;999.90;;;10.60;77.70;;;;;;4984847;28;20058;-85
2022/01/20 11:51:29;;;;;;;1999.90;999.90;;;10.60;77.80;;;;;;4985709;28;20380;-85
2022/01/20 11:54:01;;;;;;;1999.90;999.90;;;10.70;77.70;;;;;;4990817;28;20037;-85
2022/01/20 11:56:29;;;;;;;1999.90;999.90;;;10.80;77.60;;;;;;4988807;28;20030;-83
2022/01/20 11:58:55;;;;;;;1999.90;999.90;;;11.00;77.20;;;;;;4987598;28;20050;-84
2022/01/20 12:01:21;;;;;;;1999.90;999.90;;;11.20;77.10;;;;;;4986163;28;20046;-83
2022/01/20 12:03:51;;;;;;;1999.90;999.90;;;11.40;76.80;;;;;;4984288;28;20027;-84
2022/01/20 12:06:23;;;;;;;1999.90;999.90;;;11.50;76.40;;;;;;4987256;28;20034;-83
2022/01/20 12:09:07;;;;;;;1999.90;999.90;;;11.60;75.80;;;;;;4971357;28;20030;-83
2022/01/20 12:11:45;;;;;;;1999.90;999.90;;;11.60;75.60;;;;;;4992891;28;20491;-84
2022/01/20 12:14:13;;;;;;;1999.90;999.90;;;11.60;75.20;;;;;;4964146;28;20035;-84
2022/01/20 12:16:40;;;;;;;1999.90;999.90;;;11.60;75.40;;;;;;4991542;28;20038;-84
2022/01/20 12:19:08;;;;;;;1999.90;999.90;;;11.70;75.30;;;;;;4990358;28;20049;-85
2022/01/20 12:21:35;;;;;;;1999.90;999.90;;;11.80;75.30;;;;;;4987204;28;20050;-84
2022/01/20 12:24:01;;;;;;;1999.90;999.90;;;11.90;74.80;;;;;;4993088;28;20407;-85
2022/01/20 12:26:33;;;;;;;1999.90;999.90;;;12.00;74.70;;;;;;4973484;28;20039;-84
2022/01/20 12:29:09;;;;;;;1999.90;999.90;;;12.10;74.60;;;;;;4988374;28;20150;-84
2022/01/20 12:31:50;;;;;;;1999.90;999.90;;;12.20;74.50;;;;;;4992574;28;20035;-83
2022/01/20 12:34:16;;;;;;;1999.90;999.90;;;12.10;74.30;;;;;;4987245;28;20574;-83
2022/01/20 12:36:52;;;;;;;1999.90;999.90;;;12.00;74.40;;;;;;4993036;28;20380;-83
2022/01/20 12:39:29;;;;;;;1999.90;999.90;;;11.90;74.30;;;;;;4987419;28;20022;-83
2022/01/20 12:41:57;;;;;;;1999.90;999.90;;;11.80;74.20;;;;;;4978627;28;20383;-82
2022/01/20 12:44:24;;;;;;;1999.90;999.90;;;11.70;73.90;;;;;;4987337;28;20022;-83
2022/01/20 12:46:50;;;;;;;1999.90;999.90;;;11.70;73.80;;;;;;4972530;28;20030;-83
2022/01/20 12:49:17;;;;;;;1999.90;999.90;;;11.70;73.70;;;;;;4991421;28;20034;-83
2022/01/20 12:51:51;;;;;;;1999.90;999.90;;;11.80;73.60;;;;;;4990781;28;20376;-83
2022/01/20 12:54:28;;;;;;;1999.90;999.90;;;11.90;73.40;;;;;;4983301;28;20061;-88
2022/01/20 12:56:56;;;;;;;1999.90;999.90;;;12.00;72.90;;;;;;4965029;28;20134;-84
2022/01/20 12:59:26;;;;;;;1999.90;999.90;;;12.00;72.70;;;;;;4991478;28;20030;-84
2022/01/20 13:01:54;;;;;;;1999.90;999.90;;;12.00;72.80;;;;;;4991993;28;20052;-85
2022/01/20 13:04:21;;;;;;;1999.90;999.90;;;12.20;72.80;;;;;;4989199;28;20309;-85
2022/01/20 13:06:53;;;;;;;1999.90;999.90;;;12.20;72.40;;;;;;4984674;28;20045;-87
2022/01/20 13:09:22;;;;;;;1999.90;999.90;;;12.20;72.30;;;;;;4986357;28;20046;-88
2022/01/20 13:11:54;;;;;;;1999.90;999.90;;;12.30;72.40;;;;;;4975070;28;20403;-86
2022/01/20 13:14:31;;;;;;;1999.90;999.90;;;12.40;72.00;;;;;;4976915;28;20403;-88
2022/01/20 13:16:57;;;;;;;1999.90;999.90;;;12.40;71.50;;;;;;4991542;28;20038;-89
2022/01/20 13:19:34;;;;;;;1999.90;999.90;;;12.50;71.60;;;;;;4992684;28;20391;-86
2022/01/20 13:22:00;;;;;;;1999.90;999.90;;;12.50;71.40;;;;;;4988570;28;20376;-79
2022/01/20 13:24:32;;;;;;;1999.90;999.90;;;12.60;70.70;;;;;;4988834;28;20061;-80
2022/01/20 13:26:59;;;;;;;1999.90;999.90;;;12.50;70.10;;;;;;4985421;28;20033;-88
2022/01/20 13:29:25;;;;;;;1999.90;999.90;;;12.50;70.20;;;;;;4971783;28;20038;-91
2022/01/20 13:31:57;;;;;;;1999.90;999.90;;;12.30;68.90;;;;;;4974899;28;20035;-90
2022/01/20 13:34:23;;;;;;;1999.90;999.90;;;12.20;69.00;;;;;;4970844;28;20039;-91
2022/01/20 13:36:54;;;;;;;1999.90;999.90;;;12.00;68.00;;;;;;4985188;28;20046;-90
2022/01/20 13:39:37;;;;;;;1999.90;999.90;;;11.80;67.90;;;;;;4974656;28;20042;-81